createdAt,value
2023-02-12T00:01:22.615Z,81.47
2023-02-12T00:03:49.992Z,80.94
2023-02-12T00:06:17.280Z,80.51
2023-02-12T00:08:44.330Z,81.03
2023-02-12T00:11:16.836Z,80.03
2023-02-12T00:13:44.129Z,80.87
2023-02-12T00:16:14.793Z,80.94
2023-02-12T00:18:42.485Z,81.36
2023-02-12T00:21:10.131Z,82.12
2023-02-12T00:23:39.139Z,82.40
2023-02-12T00:26:08.552Z,82.36
2023-02-12T00:28:35.848Z,81.63
2023-02-12T00:31:07.287Z,81.17
2023-02-12T00:33:34.905Z,79.79
2023-02-12T00:36:02.424Z,79.40
2023-02-12T00:38:29.506Z,79.81
2023-02-12T00:40:56.912Z,80.17
2023-02-12T00:43:23.815Z,80.42
2023-02-12T00:45:51.062Z,80.46
2023-02-12T00:48:18.224Z,80.54
2023-02-12T00:50:46.953Z,80.86
2023-02-12T00:53:14.312Z,80.73
2023-02-12T00:55:42.145Z,80.67
2023-02-12T00:58:09.743Z,80.14
2023-02-12T01:00:36.987Z,79.80
2023-02-12T01:03:04.603Z,80.17
2023-02-12T01:05:33.210Z,80.67
2023-02-12T01:08:00.708Z,80.48
2023-02-12T01:10:28.294Z,80.62
2023-02-12T01:12:55.843Z,80.41
2023-02-12T01:15:23.795Z,79.43
2023-02-12T01:17:54.372Z,78.69
2023-02-12T01:20:24.049Z,79.17
2023-02-12T01:22:51.268Z,79.88
2023-02-12T01:25:20.533Z,79.67
2023-02-12T01:27:47.955Z,79.71
2023-02-12T01:30:16.192Z,79.92
2023-02-12T01:32:44.094Z,79.83
2023-02-12T01:35:11.836Z,79.59
2023-02-12T01:37:41.101Z,78.92
2023-02-12T01:40:09.340Z,78.81
2023-02-12T01:42:36.247Z,79.27
2023-02-12T01:45:12.738Z,78.83
2023-02-12T01:47:41.575Z,78.79
2023-02-12T01:50:12.870Z,78.78
2023-02-12T01:52:46.610Z,79.21
2023-02-12T01:55:15.070Z,78.16
2023-02-12T01:57:45.804Z,77.50
2023-02-12T02:00:16.937Z,77.22
2023-02-12T02:02:48.091Z,77.23
2023-02-12T02:05:18.170Z,77.57
2023-02-12T02:07:45.618Z,77.62
2023-02-12T02:10:12.951Z,77.65
2023-02-12T02:12:58.378Z,78.12
2023-02-12T02:15:30.521Z,78.06
2023-02-12T02:18:26.986Z,78.78
2023-02-12T02:21:22.271Z,77.20
2023-02-12T02:24:10.346Z,76.29
2023-02-12T02:27:10.481Z,76.32
2023-02-12T02:30:26.535Z,76.52
2023-02-12T02:33:13.778Z,76.56
2023-02-12T02:35:54.528Z,76.87
2023-02-12T02:38:35.742Z,77.07
2023-02-12T02:41:02.584Z,77.23
2023-02-12T02:43:35.796Z,77.07
2023-02-12T02:46:09.982Z,76.83
2023-02-12T02:48:41.893Z,75.45
2023-02-12T02:51:14.344Z,76.09
2023-02-12T02:53:51.561Z,75.70
2023-02-12T02:56:22.895Z,75.66
2023-02-12T02:59:01.518Z,75.80
2023-02-12T03:01:36.658Z,75.61
2023-02-12T03:04:08.172Z,75.65
2023-02-12T03:06:47.091Z,75.53
2023-02-12T03:09:20.552Z,75.84
2023-02-12T03:11:47.971Z,76.07
2023-02-12T03:14:23.430Z,75.13
2023-02-12T03:17:04.429Z,74.98
2023-02-12T03:19:44.325Z,74.65
2023-02-12T03:22:16.653Z,74.35
2023-02-12T03:25:01.902Z,73.88
2023-02-12T03:27:40.382Z,74.74
2023-02-12T03:30:08.917Z,75.59
2023-02-12T03:32:38.638Z,75.37
2023-02-12T03:35:10.367Z,75.61
2023-02-12T03:37:46.788Z,75.59
2023-02-12T03:40:53.735Z,75.50
2023-02-12T03:43:27.648Z,75.12
2023-02-12T03:46:27.080Z,74.78
2023-02-12T03:49:02.262Z,74.04
2023-02-12T03:51:36.830Z,73.13
2023-02-12T03:54:06.225Z,73.67
2023-02-12T03:56:40.976Z,73.57
2023-02-12T03:59:08.269Z,74.48
2023-02-12T04:01:36.067Z,74.93
2023-02-12T04:04:05.320Z,74.58
2023-02-12T04:06:32.752Z,74.52
2023-02-12T04:09:04.283Z,74.19
2023-02-12T04:11:40.530Z,73.96
2023-02-12T04:14:23.292Z,74.17
2023-02-12T04:17:14.923Z,74.90
2023-02-12T04:20:00.592Z,74.14
2023-02-12T04:23:06.737Z,74.84
2023-02-12T04:25:51.855Z,74.14
2023-02-12T04:28:44.184Z,74.14
2023-02-12T04:31:29.103Z,74.15
2023-02-12T04:34:14.509Z,74.25
2023-02-12T04:36:58.005Z,74.78
2023-02-12T04:39:31.988Z,74.71
2023-02-12T04:42:00.988Z,74.41
2023-02-12T04:44:31.775Z,74.56
2023-02-12T04:46:58.771Z,75.10
2023-02-12T04:49:26.855Z,75.20
2023-02-12T04:51:54.197Z,75.44
2023-02-12T04:54:22.472Z,75.51
2023-02-12T04:56:50.120Z,75.28
2023-02-12T04:59:17.778Z,75.25
2023-02-12T05:01:45.715Z,75.53
2023-02-12T05:04:16.001Z,75.25
2023-02-12T05:06:43.889Z,75.26
2023-02-12T05:09:15.941Z,75.62
2023-02-12T05:11:43.431Z,75.20
2023-02-12T05:14:11.282Z,75.75
2023-02-12T05:16:38.626Z,75.76
2023-02-12T05:19:05.924Z,75.43
2023-02-12T05:21:32.945Z,75.35
2023-02-12T05:24:03.126Z,75.33
2023-02-12T05:26:30.427Z,75.76
2023-02-12T05:28:57.845Z,76.18
2023-02-12T05:31:25.052Z,75.67
2023-02-12T05:33:52.647Z,75.81
2023-02-12T05:36:24.007Z,75.85
2023-02-12T05:38:52.295Z,75.64
2023-02-12T05:41:23.322Z,76.13
2023-02-12T05:43:51.136Z,76.08
2023-02-12T05:46:19.808Z,76.17
2023-02-12T05:48:47.521Z,76.62
2023-02-12T05:51:17.199Z,76.34
2023-02-12T05:53:44.338Z,75.69
2023-02-12T05:56:11.465Z,76.06
2023-02-12T05:58:39.344Z,76.33
2023-02-12T06:01:14.374Z,75.67
2023-02-12T06:03:41.807Z,75.29
2023-02-12T06:06:09.232Z,74.40
2023-02-12T06:08:37.049Z,74.54
2023-02-12T06:11:07.113Z,75.29
2023-02-12T06:13:34.956Z,74.82
2023-02-12T06:16:02.321Z,75.09
2023-02-12T06:18:29.589Z,75.56
2023-02-12T06:20:57.036Z,75.21
2023-02-12T06:23:24.967Z,75.06
2023-02-12T06:25:57.283Z,74.56
2023-02-12T06:28:25.066Z,74.20
2023-02-12T06:30:52.436Z,73.76
2023-02-12T06:33:19.766Z,73.78
2023-02-12T06:35:46.785Z,74.48
2023-02-12T06:38:14.159Z,74.31
2023-02-12T06:40:41.488Z,74.45
2023-02-12T06:43:08.927Z,75.09
2023-02-12T06:45:35.857Z,74.64
2023-02-12T06:48:03.197Z,75.07
2023-02-12T06:50:30.745Z,75.21
2023-02-12T06:52:59.016Z,74.76
2023-02-12T06:55:26.080Z,75.20
2023-02-12T06:57:53.295Z,75.08
2023-02-12T07:00:20.885Z,75.04
2023-02-12T07:02:53.583Z,75.03
2023-02-12T07:05:20.730Z,74.87
2023-02-12T07:07:47.959Z,73.47
2023-02-12T07:10:14.905Z,73.50
2023-02-12T07:12:42.104Z,73.42
2023-02-12T07:15:09.556Z,73.61
2023-02-12T07:17:36.926Z,73.92
2023-02-12T07:20:05.288Z,73.83
2023-02-12T07:22:36.297Z,73.39
2023-02-12T07:25:03.209Z,73.13
2023-02-12T07:27:30.442Z,73.16
2023-02-12T07:29:57.548Z,73.13
2023-02-12T07:32:24.960Z,73.19
2023-02-12T07:34:51.925Z,73.13
2023-02-12T07:37:22.840Z,72.88
2023-02-12T07:39:50.252Z,73.26
2023-02-12T07:42:18.350Z,73.50
2023-02-12T07:44:49.703Z,73.49
2023-02-12T07:47:16.946Z,74.05
2023-02-12T07:49:43.959Z,74.30
2023-02-12T07:52:13.367Z,73.89
2023-02-12T07:54:40.404Z,72.08
2023-02-12T07:57:07.661Z,72.12
2023-02-12T07:59:34.591Z,72.05
2023-02-12T08:02:01.868Z,71.90
2023-02-12T08:04:28.841Z,72.46
2023-02-12T08:06:56.760Z,71.70
2023-02-12T08:09:26.763Z,71.90
2023-02-12T08:11:54.290Z,71.82
2023-02-12T08:14:22.349Z,72.08
2023-02-12T08:16:50.660Z,71.21
2023-02-12T08:19:22.437Z,68.96
2023-02-12T08:21:55.547Z,69.47
2023-02-12T08:24:23.823Z,70.26
2023-02-12T08:26:52.054Z,70.76
2023-02-12T08:29:24.772Z,69.93
2023-02-12T08:31:59.925Z,68.29
2023-02-12T08:34:30.203Z,68.15
2023-02-12T08:36:58.591Z,68.52
2023-02-12T08:39:28.811Z,69.47
2023-02-12T08:41:57.883Z,69.72
2023-02-12T08:44:25.028Z,69.17
2023-02-12T08:46:53.275Z,68.96
2023-02-12T08:49:22.903Z,69.52
2023-02-12T08:51:53.031Z,70.08
2023-02-12T08:54:25.823Z,70.11
2023-02-12T08:57:01.459Z,70.25
2023-02-12T08:59:29.033Z,69.14
2023-02-12T09:01:56.295Z,68.10
2023-02-12T09:04:25.970Z,68.83
2023-02-12T09:06:53.831Z,69.06
2023-02-12T09:09:21.288Z,68.69
2023-02-12T09:11:49.621Z,68.94
2023-02-12T09:14:18.922Z,68.61
2023-02-12T09:16:46.340Z,68.43
2023-02-12T09:19:14.264Z,68.28
2023-02-12T09:21:42.141Z,69.09
2023-02-12T09:24:09.889Z,69.49
2023-02-12T09:26:37.472Z,68.57
2023-02-12T09:29:04.804Z,69.64
2023-02-12T09:31:33.416Z,70.21
2023-02-12T09:34:03.416Z,70.48
2023-02-12T09:36:31.251Z,70.27
2023-02-12T09:38:59.536Z,69.38
2023-02-12T09:41:39.378Z,69.71
2023-02-12T09:44:30.916Z,69.36
2023-02-12T09:46:57.953Z,68.26
2023-02-12T09:49:48.980Z,68.51
2023-02-12T09:52:26.848Z,68.78
2023-02-12T09:54:54.249Z,68.25
2023-02-12T09:57:29.509Z,68.18
2023-02-12T10:00:06.842Z,68.75
2023-02-12T10:02:37.300Z,67.56
2023-02-12T10:05:06.689Z,67.13
2023-02-12T10:07:45.214Z,67.72
2023-02-12T10:10:29.781Z,67.19
2023-02-12T10:13:13.685Z,66.88
2023-02-12T10:15:43.363Z,66.77
2023-02-12T10:18:39.375Z,66.28
2023-02-12T10:21:17.641Z,65.70
2023-02-12T10:24:00.710Z,64.87
2023-02-12T10:26:35.936Z,65.99
2023-02-12T10:29:34.284Z,65.70
2023-02-12T10:32:28.477Z,65.52
2023-02-12T10:34:57.277Z,64.83
2023-02-12T10:37:35.296Z,65.20
2023-02-12T10:40:15.240Z,64.10
2023-02-12T10:42:45.301Z,65.15
2023-02-12T10:45:15.325Z,64.97
2023-02-12T10:47:42.461Z,66.33
2023-02-12T10:50:23.295Z,66.85
2023-02-12T10:52:55.891Z,66.05
2023-02-12T10:55:35.186Z,65.00
2023-02-12T10:58:05.034Z,65.07
2023-02-12T11:00:35.227Z,64.26
2023-02-12T11:03:22.473Z,64.03
2023-02-12T11:05:50.067Z,64.72
2023-02-12T11:08:32.109Z,65.47
2023-02-12T11:11:31.199Z,64.88
2023-02-12T11:14:00.409Z,65.45
2023-02-12T11:16:46.686Z,64.45
2023-02-12T11:19:28.517Z,65.42
2023-02-12T11:22:14.596Z,65.29
2023-02-12T11:24:41.544Z,65.13
2023-02-12T11:27:26.498Z,65.11
2023-02-12T11:30:21.232Z,66.83
2023-02-12T11:32:49.527Z,66.18
2023-02-12T11:35:27.006Z,66.74
2023-02-12T11:37:57.745Z,67.14
2023-02-12T11:40:28.640Z,67.02
2023-02-12T11:42:59.183Z,66.27
2023-02-12T11:45:41.672Z,66.67
2023-02-12T11:48:29.420Z,66.27
2023-02-12T11:50:59.480Z,66.07
2023-02-12T11:53:35.988Z,67.21
2023-02-12T11:56:08.597Z,66.85
2023-02-12T11:58:36.064Z,66.14
2023-02-12T12:01:21.026Z,65.65
2023-02-12T12:03:57.622Z,65.81
2023-02-12T12:06:31.545Z,65.56
2023-02-12T12:09:24.119Z,66.57
2023-02-12T12:11:59.243Z,67.00
2023-02-12T12:15:01.335Z,66.36
2023-02-12T12:17:55.895Z,65.93
2023-02-12T12:20:29.659Z,66.77
2023-02-12T12:23:21.890Z,66.54
2023-02-12T12:25:57.704Z,65.08
2023-02-12T12:28:31.607Z,64.13
2023-02-12T12:31:06.826Z,65.35
2023-02-12T12:33:40.968Z,65.42
2023-02-12T12:36:14.506Z,63.28
2023-02-12T12:38:41.509Z,63.81
2023-02-12T12:41:30.747Z,65.51
2023-02-12T12:44:13.745Z,64.84
2023-02-12T12:47:05.224Z,66.07
2023-02-12T12:49:50.597Z,65.59
2023-02-12T12:52:25.389Z,66.51
2023-02-12T12:55:19.196Z,66.77
2023-02-12T12:57:58.663Z,66.08
2023-02-12T13:00:39.408Z,64.94
2023-02-12T13:03:37.576Z,65.52
2023-02-12T13:06:22.846Z,64.49
2023-02-12T13:09:02.302Z,63.30
2023-02-12T13:11:44.191Z,64.29
2023-02-12T13:14:28.034Z,65.13
2023-02-12T13:17:10.681Z,65.69
2023-02-12T13:20:03.045Z,64.60
2023-02-12T13:22:35.242Z,64.97
2023-02-12T13:25:16.757Z,65.08
2023-02-12T13:27:46.436Z,64.18
2023-02-12T13:30:22.248Z,63.96
2023-02-12T13:33:12.309Z,63.86
2023-02-12T13:35:46.240Z,63.73
2023-02-12T13:38:23.135Z,65.42
2023-02-12T13:40:54.687Z,65.71
2023-02-12T13:43:27.304Z,65.95
2023-02-12T13:46:14.108Z,65.47
2023-02-12T13:48:58.901Z,64.84
2023-02-12T13:51:50.556Z,65.58
2023-02-12T13:54:36.323Z,65.94
2023-02-12T13:57:09.755Z,66.38
2023-02-12T13:59:36.587Z,67.53
2023-02-12T14:02:12.942Z,67.73
2023-02-12T14:04:55.497Z,67.87
2023-02-12T14:07:24.604Z,67.98
2023-02-12T14:09:51.516Z,68.60
2023-02-12T14:12:43.038Z,68.32
2023-02-12T14:15:26.137Z,68.82
2023-02-12T14:18:07.158Z,68.46
2023-02-12T14:20:36.603Z,68.60
2023-02-12T14:23:03.782Z,69.15
2023-02-12T14:25:38.814Z,68.31
2023-02-12T14:28:07.328Z,69.23
2023-02-12T14:30:39.180Z,69.50
2023-02-12T14:33:07.369Z,70.03
2023-02-12T14:35:44.342Z,71.24
2023-02-12T14:38:11.563Z,71.74
2023-02-12T14:40:42.221Z,72.47
2023-02-12T14:43:28.239Z,73.08
2023-02-12T14:45:57.319Z,72.81
2023-02-12T14:48:46.457Z,73.20
2023-02-12T14:51:33.319Z,73.58
2023-02-12T14:54:01.374Z,74.34
2023-02-12T14:56:28.516Z,74.61
2023-02-12T14:58:58.778Z,74.31
2023-02-12T15:01:35.269Z,74.67
2023-02-12T15:04:17.517Z,75.12
2023-02-12T15:06:53.637Z,74.65
2023-02-12T15:09:35.735Z,75.08
2023-02-12T15:12:27.333Z,75.48
2023-02-12T15:15:05.994Z,75.81
2023-02-12T15:17:37.973Z,75.92
2023-02-12T15:20:13.903Z,75.83
2023-02-12T15:22:41.264Z,76.69
2023-02-12T15:25:26.260Z,76.65
2023-02-12T15:28:00.395Z,76.54
2023-02-12T15:30:35.385Z,76.91
2023-02-12T15:33:08.089Z,77.59
2023-02-12T15:35:39.846Z,77.17
2023-02-12T15:38:10.856Z,77.97
2023-02-12T15:40:54.092Z,78.02
2023-02-12T15:43:21.027Z,78.62
2023-02-12T15:45:52.798Z,78.99
2023-02-12T15:48:20.823Z,79.02
2023-02-12T15:50:48.199Z,79.63
2023-02-12T15:53:16.538Z,79.26
2023-02-12T15:55:46.815Z,79.89
2023-02-12T15:58:24.943Z,80.01
2023-02-12T16:00:54.643Z,80.16
2023-02-12T16:03:23.670Z,81.12
2023-02-12T16:05:52.554Z,81.08
2023-02-12T16:08:22.563Z,81.58
2023-02-12T16:10:53.226Z,81.86
2023-02-12T16:13:35.472Z,82.21
2023-02-12T16:16:13.314Z,82.32
2023-02-12T16:18:41.963Z,82.83
2023-02-12T16:21:17.670Z,82.66
2023-02-12T16:23:46.338Z,83.10
2023-02-12T16:26:23.075Z,83.19
2023-02-12T16:28:53.395Z,83.79
2023-02-12T16:31:23.812Z,83.88
2023-02-12T16:33:54.010Z,83.79
2023-02-12T16:36:22.583Z,84.23
2023-02-12T16:38:50.846Z,84.25
2023-02-12T16:41:18.173Z,84.56
2023-02-12T16:43:46.683Z,84.90
2023-02-12T16:46:16.618Z,85.39
2023-02-12T16:48:49.759Z,85.23
2023-02-12T16:51:32.080Z,85.48
2023-02-12T16:54:01.503Z,85.66
2023-02-12T16:56:34.194Z,85.97
2023-02-12T16:59:02.148Z,85.89
2023-02-12T17:01:34.063Z,86.21
2023-02-12T17:04:04.737Z,86.30
2023-02-12T17:06:32.760Z,86.26
2023-02-12T17:09:00.482Z,87.01
2023-02-12T17:11:29.092Z,86.94
2023-02-12T17:13:57.045Z,87.36
2023-02-12T17:16:30.714Z,87.65
2023-02-12T17:18:59.261Z,87.52
2023-02-12T17:21:32.587Z,87.54
2023-02-12T17:23:59.636Z,87.68
2023-02-12T17:26:27.008Z,88.25
2023-02-12T17:28:53.925Z,88.63
2023-02-12T17:31:21.313Z,88.68
2023-02-12T17:33:48.462Z,88.35
2023-02-12T17:36:15.768Z,88.78
2023-02-12T17:38:42.825Z,89.35
2023-02-12T17:41:11.110Z,89.38
2023-02-12T17:43:38.238Z,89.68
2023-02-12T17:46:14.159Z,90.07
2023-02-12T17:48:41.249Z,89.80
2023-02-12T17:51:09.950Z,89.86
2023-02-12T17:53:36.921Z,89.79
2023-02-12T17:56:04.763Z,90.05
2023-02-12T17:58:31.711Z,89.91
2023-02-12T18:01:05.640Z,90.31
2023-02-12T18:03:32.939Z,90.64
2023-02-12T18:06:00.738Z,91.27
2023-02-12T18:08:28.148Z,91.63
2023-02-12T18:10:55.736Z,91.55
2023-02-12T18:13:23.463Z,91.88
2023-02-12T18:15:51.697Z,91.95
2023-02-12T18:18:18.957Z,92.20
2023-02-12T18:20:46.255Z,91.90
2023-02-12T18:23:13.228Z,91.49
2023-02-12T18:25:42.348Z,91.56
2023-02-12T18:28:10.522Z,91.46
2023-02-12T18:30:39.134Z,91.10
2023-02-12T18:33:06.305Z,90.74
2023-02-12T18:35:34.018Z,91.43
2023-02-12T18:38:00.940Z,91.22
2023-02-12T18:40:28.229Z,91.56
2023-02-12T18:42:55.246Z,91.94
2023-02-12T18:45:22.487Z,91.95
2023-02-12T18:47:49.328Z,91.56
2023-02-12T18:50:16.718Z,91.05
2023-02-12T18:52:43.674Z,91.18
2023-02-12T18:55:11.429Z,91.89
2023-02-12T18:57:38.711Z,91.96
2023-02-12T19:00:06.702Z,91.79
2023-02-12T19:02:33.832Z,91.78
2023-02-12T19:05:01.183Z,91.77
2023-02-12T19:07:28.132Z,91.93
2023-02-12T19:09:55.482Z,91.79
2023-02-12T19:12:22.632Z,91.90
2023-02-12T19:14:49.822Z,92.07
2023-02-12T19:17:16.721Z,92.05
2023-02-12T19:19:44.071Z,92.02
2023-02-12T19:22:11.057Z,91.68
2023-02-12T19:24:46.756Z,92.27
2023-02-12T19:27:14.186Z,92.57
2023-02-12T19:29:41.535Z,91.95
2023-02-12T19:32:08.679Z,92.10
2023-02-12T19:34:35.983Z,92.55
2023-02-12T19:37:02.958Z,92.91
2023-02-12T19:39:30.303Z,92.78
2023-02-12T19:41:57.244Z,92.66
2023-02-12T19:44:25.577Z,92.75
2023-02-12T19:46:53.516Z,93.37
2023-02-12T19:49:23.829Z,93.19
2023-02-12T19:51:51.689Z,93.75
2023-02-12T19:54:20.871Z,93.71
2023-02-12T19:56:48.439Z,93.18
2023-02-12T19:59:17.799Z,93.38
2023-02-12T20:01:45.987Z,93.98
2023-02-12T20:04:15.041Z,94.05
2023-02-12T20:06:43.503Z,93.82
2023-02-12T20:09:11.573Z,94.44
2023-02-12T20:11:39.299Z,94.43
2023-02-12T20:14:10.211Z,94.60
2023-02-12T20:16:39.123Z,95.15
2023-02-12T20:19:12.879Z,94.84
2023-02-12T20:21:41.034Z,94.64
2023-02-12T20:24:08.516Z,94.89
2023-02-12T20:26:36.140Z,95.23
2023-02-12T20:29:05.205Z,95.09
2023-02-12T20:31:36.284Z,95.32
2023-02-12T20:34:07.705Z,95.26
2023-02-12T20:36:37.013Z,95.41
2023-02-12T20:39:05.998Z,95.84
2023-02-12T20:41:34.868Z,95.77
2023-02-12T20:44:02.119Z,96.23
2023-02-12T20:46:29.205Z,95.76
2023-02-12T20:48:57.787Z,96.50
2023-02-12T20:51:27.264Z,96.14
2023-02-12T20:53:55.615Z,96.34
2023-02-12T20:56:31.831Z,96.28
2023-02-12T20:59:00.495Z,96.51
2023-02-12T21:01:36.293Z,96.56
2023-02-12T21:04:06.590Z,96.55
2023-02-12T21:06:34.845Z,96.63
2023-02-12T21:09:03.218Z,97.09
2023-02-12T21:11:30.321Z,97.12
2023-02-12T21:14:18.394Z,96.93
2023-02-12T21:16:46.251Z,97.26
2023-02-12T21:19:17.880Z,97.21
2023-02-12T21:21:45.532Z,97.59
2023-02-12T21:24:17.280Z,98.32
2023-02-12T21:26:44.444Z,98.87
2023-02-12T21:29:11.679Z,98.45
2023-02-12T21:31:44.590Z,98.89
2023-02-12T21:34:19.628Z,99.06
2023-02-12T21:36:48.325Z,99.68
2023-02-12T21:39:26.111Z,99.74
2023-02-12T21:41:55.870Z,100.00
2023-02-12T21:44:24.703Z,100.00
2023-02-12T21:46:52.409Z,100.00
2023-02-12T21:49:27.622Z,100.00
2023-02-12T21:51:57.994Z,100.00
2023-02-12T21:54:26.134Z,100.00
2023-02-12T21:56:53.097Z,100.00
2023-02-12T21:59:20.393Z,100.00
2023-02-12T22:01:50.973Z,100.00
2023-02-12T22:04:19.128Z,100.00
2023-02-12T22:06:48.331Z,100.00
2023-02-12T22:09:18.629Z,100.00
2023-02-12T22:11:45.663Z,100.00
2023-02-12T22:14:15.093Z,100.00
2023-02-12T22:16:42.455Z,100.00
2023-02-12T22:19:09.913Z,100.00
2023-02-12T22:21:40.241Z,100.00
2023-02-12T22:24:10.880Z,100.00
2023-02-12T22:26:38.046Z,100.00
2023-02-12T22:29:08.501Z,100.00
2023-02-12T22:31:37.478Z,100.00
2023-02-12T22:34:08.358Z,100.00
2023-02-12T22:36:37.092Z,100.00
2023-02-12T22:39:05.766Z,100.00
2023-02-12T22:41:33.526Z,100.00
2023-02-12T22:44:02.494Z,100.00
2023-02-12T22:46:29.526Z,100.00
2023-02-12T22:48:56.882Z,100.00
2023-02-12T22:51:26.903Z,100.00
2023-02-12T22:53:54.870Z,100.00
2023-02-12T22:56:23.130Z,100.00
2023-02-12T22:58:58.155Z,100.00
2023-02-12T23:01:26.351Z,100.00
2023-02-12T23:03:53.730Z,100.00
2023-02-12T23:06:27.770Z,100.00
2023-02-12T23:08:59.070Z,100.00
2023-02-12T23:11:28.242Z,100.00
2023-02-12T23:13:56.409Z,100.00
2023-02-12T23:16:23.850Z,100.00
2023-02-12T23:18:56.570Z,100.00
2023-02-12T23:21:24.469Z,100.00
2023-02-12T23:23:52.063Z,100.00
2023-02-12T23:26:19.227Z,100.00
2023-02-12T23:28:46.586Z,100.00
2023-02-12T23:31:13.891Z,100.00
2023-02-12T23:33:41.115Z,100.00
2023-02-12T23:36:08.316Z,100.00
2023-02-12T23:38:35.501Z,100.00
2023-02-12T23:41:02.524Z,100.00
2023-02-12T23:43:29.911Z,100.00
2023-02-12T23:45:56.859Z,100.00
2023-02-12T23:48:24.261Z,100.00
2023-02-12T23:50:51.106Z,100.00
2023-02-12T23:53:19.351Z,100.00
2023-02-12T23:55:51.138Z,100.00
2023-02-12T23:58:18.381Z,100.00
